Time;durP1;ratioP1;P1;durP2;ratioP2;P2;SDS_P1;SDS_P2;PMS_P1;PMS_P2;Temp;Humidity;BMP_temperature;BMP_pressure;BME280_temperature;BME280_humidity;BME280_pressure;Samples;Min_cycle;Max_cycle;Signal;HPM_P1;HPM_P2
2021/06/23 00:25:35;;;;;;;9.02;1.80;;;;;;;;;;5079565;28;20125;-52
2021/06/23 00:28:02;;;;;;;6.50;1.98;;;;;;;;;;5074882;28;20080;-55
2021/06/23 00:30:29;;;;;;;2.28;1.75;;;;;;;;;;5073958;28;20461;-54
2021/06/23 00:33:03;;;;;;;4.47;1.60;;;;;;;;;;5072749;28;20044;-55
2021/06/23 00:35:30;;;;;;;6.07;1.70;;;;;;;;;;5077262;28;20052;-55
2021/06/23 00:37:57;;;;;;;3.42;1.80;;;;;;;;;;5076540;28;20049;-56
2021/06/23 00:40:23;;;;;;;4.60;1.95;;;;;;;;;;5075333;28;20052;-55
2021/06/23 00:42:52;;;;;;;2.13;1.50;;;;;;;;;;5074675;28;20108;-57
2021/06/23 00:45:19;;;;;;;;;;;;;;;;;;5076825;28;20040;-55
2021/06/23 00:47:47;;;;;;;4.95;1.77;;;;;;;;;;5077009;28;19924;-55
2021/06/23 00:50:17;;;;;;;2.15;1.48;;;;;;;;;;5069993;28;20040;-55
2021/06/23 00:52:53;;;;;;;8.88;2.00;;;;;;;;;;5070546;28;20442;-56
2021/06/23 00:55:34;;;;;;;8.48;2.10;;;;;;;;;;5076146;28;20119;-53
2021/06/23 01:25:36;;;;;;;2.03;1.67;;;;;;;;;;5057417;28;20390;-52
2021/06/23 01:28:04;;;;;;;8.18;1.83;;;;;;;;;;5055840;28;20037;-54
2021/06/23 01:30:39;;;;;;;3.00;1.52;;;;;;;;;;5051731;28;20103;-54
2021/06/23 01:33:26;;;;;;;4.00;1.70;;;;;;;;;;5053631;28;20059;-56
2021/06/23 01:35:54;;;;;;;3.22;1.45;;;;;;;;;;5060358;28;20041;-54
2021/06/23 01:38:21;;;;;;;2.85;1.73;;;;;;;;;;5055525;28;20073;-56
2021/06/23 01:40:49;;;;;;;4.05;1.27;;;;;;;;;;5070693;28;20513;-56
2021/06/23 02:25:35;;;;;;;1.83;1.60;;;;;;;;;;5059217;28;20465;-54
2021/06/23 02:28:18;;;;;;;5.13;1.88;;;;;;;;;;5037600;28;20053;-53
2021/06/23 03:26:36;;;;;;;5.75;2.42;;;;;;;;;;5061897;28;20130;-55
2021/06/23 03:29:19;;;;;;;5.20;2.13;;;;;;;;;;5055182;28;20045;-52
2021/06/23 03:31:46;;;;;;;4.88;2.20;;;;;;;;;;5054440;28;20057;-56
2021/06/23 03:34:17;;;;;;;5.15;2.33;;;;;;;;;;5063264;28;20041;-55
2021/06/23 03:36:56;;;;;;;4.63;2.30;;;;;;;;;;5059919;28;20135;-56
2021/06/23 05:26:36;;;;;;;3.47;1.90;;;;;;;;;;5052293;28;20947;-54
2021/06/23 05:29:04;;;;;;;7.97;1.75;;;;;;;;;;5043294;28;20124;-55
2021/06/23 05:31:31;;;;;;;5.18;2.30;;;;;;;;;;5040496;28;20057;-53
2021/06/23 05:33:58;;;;;;;3.20;2.07;;;;;;;;;;5045186;28;20399;-54
2021/06/23 06:26:37;;;;;;;3.90;1.73;;;;;;;;;;5057721;28;20867;-57
2021/06/23 06:29:05;;;;;;;2.40;1.65;;;;;;;;;;5056235;28;20120;-57
2021/06/23 06:31:32;;;;;;;3.25;1.80;;;;;;;;;;5060029;28;20053;-58
2021/06/23 06:33:59;;;;;;;4.35;1.95;;;;;;;;;;5054599;28;20075;-56
2021/06/23 06:36:26;;;;;;;5.35;1.77;;;;;;;;;;5059233;28;20049;-58
2021/06/23 06:38:53;;;;;;;2.03;1.77;;;;;;;;;;5056947;28;20045;-58
2021/06/23 06:41:20;;;;;;;3.85;1.73;;;;;;;;;;5050380;28;20093;-57
2021/06/23 06:43:48;;;;;;;;;;;;;;;;;;5053980;28;20059;-58
2021/06/23 07:27:36;;;;;;;1.63;1.50;;;;;;;;;;5057823;28;20685;-58
2021/06/23 07:30:05;;;;;;;3.45;1.60;;;;;;;;;;5056799;28;20110;-57
2021/06/23 07:32:53;;;;;;;2.78;1.50;;;;;;;;;;5055279;28;20693;-59
2021/06/23 07:38:07;;;;;;;6.45;1.92;;;;;;;;;;5060301;28;20049;-58
2021/06/23 07:43:21;;;;;;;2.08;1.83;;;;;;;;;;5055486;28;20485;-58
2021/06/23 07:45:51;;;;;;;8.73;2.33;;;;;;;;;;5055858;28;20041;-57
2021/06/23 07:48:27;;;;;;;18.83;2.47;;;;;;;;;;5051463;28;20045;-58
2021/06/23 07:51:16;;;;;;;10.60;2.03;;;;;;;;;;5056215;28;20032;-57
2021/06/23 08:09:54;;;;;;;8.15;2.05;;;;;;;;;;5051492;28;20048;-57
2021/06/23 08:12:27;;;;;;;4.88;1.80;;;;;;;;;;5055697;28;20057;-57
2021/06/23 08:14:54;;;;;;;3.97;2.35;;;;;;;;;;5059206;28;20044;-57
2021/06/23 08:17:20;;;;;;;4.50;2.20;;;;;;;;;;5052278;28;20049;-56
2021/06/23 08:27:33;;;;;;;2.95;2.38;;;;;;;;;;5048827;28;20433;-57
2021/06/23 08:30:04;;;;;;;6.63;2.20;;;;;;;;;;5031460;28;20045;-58
2021/06/23 08:32:30;;;;;;;2.38;2.17;;;;;;;;;;5034693;28;20595;-58
2021/06/23 08:34:57;;;;;;;5.00;2.08;;;;;;;;;;5041516;28;20095;-58
2021/06/23 08:37:24;;;;;;;2.00;1.80;;;;;;;;;;5031827;28;20068;-56
2021/06/23 08:39:51;;;;;;;5.22;2.00;;;;;;;;;;5037544;28;20033;-56
2021/06/23 08:42:23;;;;;;;2.22;2.03;;;;;;;;;;5038913;28;20049;-56
2021/06/23 08:44:50;;;;;;;3.83;1.80;;;;;;;;;;5035283;28;20560;-56
2021/06/23 08:47:17;;;;;;;4.30;1.73;;;;;;;;;;5035578;28;20055;-57
2021/06/23 08:49:45;;;;;;;2.95;1.98;;;;;;;;;;5034432;28;20053;-56
2021/06/23 08:52:13;;;;;;;1.80;1.60;;;;;;;;;;5031326;28;20092;-56
2021/06/23 08:54:41;;;;;;;2.67;1.70;;;;;;;;;;5035968;28;20034;-56
2021/06/23 08:57:07;;;;;;;3.97;2.00;;;;;;;;;;5034847;28;20052;-57
2021/06/23 08:59:35;;;;;;;2.83;1.77;;;;;;;;;;5030855;28;20046;-56
2021/06/23 09:02:02;;;;;;;2.00;1.52;;;;;;;;;;5029721;28;20144;-56
2021/06/23 09:04:29;;;;;;;3.97;1.55;;;;;;;;;;5032703;28;20046;-57
2021/06/23 09:06:58;;;;;;;;;;;;;;;;;;5035106;28;20489;-56
2021/06/23 09:09:34;;;;;;;1.63;1.52;;;;;;;;;;5034125;28;19922;-57
2021/06/23 09:12:05;;;;;;;3.13;1.67;;;;;;;;;;5033145;28;20057;-56
2021/06/23 09:14:33;;;;;;;1.80;1.70;;;;;;;;;;5033541;28;20387;-57
2021/06/23 09:17:05;;;;;;;2.75;2.00;;;;;;;;;;5029926;28;20571;-55
2021/06/23 09:19:53;;;;;;;1.67;1.58;;;;;;;;;;5035094;28;20079;-56
2021/06/23 09:22:29;;;;;;;2.38;2.17;;;;;;;;;;5029908;28;20137;-56
2021/06/23 09:24:58;;;;;;;2.17;1.98;;;;;;;;;;5029923;28;20057;-56
2021/06/23 09:27:26;;;;;;;8.32;1.77;;;;;;;;;;5027434;28;20044;-56
2021/06/23 09:30:14;;;;;;;3.35;1.95;;;;;;;;;;5030628;28;20054;-56
2021/06/23 09:32:40;;;;;;;4.90;1.98;;;;;;;;;;5033906;28;20592;-56
2021/06/23 09:35:07;;;;;;;3.33;1.87;;;;;;;;;;5038846;28;20047;-57
2021/06/23 09:37:37;;;;;;;4.20;1.80;;;;;;;;;;5030856;28;20041;-56
2021/06/23 09:40:11;;;;;;;2.05;1.95;;;;;;;;;;5020888;28;20045;-57
2021/06/23 09:42:42;;;;;;;2.90;2.08;;;;;;;;;;5019760;28;20129;-57
2021/06/23 09:45:10;;;;;;;6.90;2.00;;;;;;;;;;5018640;28;20081;-56
2021/06/23 09:47:38;;;;;;;3.10;1.90;;;;;;;;;;5020991;28;20050;-56
2021/06/23 09:50:05;;;;;;;6.40;2.20;;;;;;;;;;5024263;28;20068;-56
2021/06/23 09:52:34;;;;;;;1.98;1.60;;;;;;;;;;5019776;28;20052;-56
2021/06/23 09:55:01;;;;;;;1.65;1.55;;;;;;;;;;5017787;28;20480;-56
2021/06/23 09:57:30;;;;;;;1.77;1.67;;;;;;;;;;5019406;28;20087;-56
2021/06/23 10:00:08;;;;;;;4.20;1.80;;;;;;;;;;5014917;28;20046;-57
2021/06/23 10:02:38;;;;;;;2.92;1.95;;;;;;;;;;5015600;28;20117;-57
2021/06/23 10:05:28;;;;;;;1.92;1.80;;;;;;;;;;5021000;28;20072;-56
2021/06/23 10:07:56;;;;;;;3.42;1.77;;;;;;;;;;5022254;28;20136;-57
2021/06/23 10:10:24;;;;;;;2.13;1.70;;;;;;;;;;5017928;28;20037;-57
2021/06/23 10:12:57;;;;;;;4.57;1.80;;;;;;;;;;5016994;28;20038;-57
2021/06/23 10:15:24;;;;;;;7.55;1.92;;;;;;;;;;5015315;28;20108;-57
2021/06/23 10:17:52;;;;;;;8.95;1.73;;;;;;;;;;5017566;28;20072;-57
2021/06/23 10:20:18;;;;;;;4.00;1.73;;;;;;;;;;5015660;28;20033;-56
2021/06/23 10:22:45;;;;;;;4.23;1.80;;;;;;;;;;5020732;28;20107;-57
2021/06/23 10:25:13;;;;;;;4.03;1.63;;;;;;;;;;5020518;28;20288;-57
2021/06/23 10:27:41;;;;;;;2.00;1.58;;;;;;;;;;5017594;28;20572;-57
2021/06/23 10:30:08;;;;;;;3.10;2.00;;;;;;;;;;5014310;28;20034;-56
2021/06/23 10:32:37;;;;;;;1.67;1.58;;;;;;;;;;5014562;28;20125;-57
2021/06/23 10:35:05;;;;;;;1.60;1.50;;;;;;;;;;5017038;28;20386;-57
2021/06/23 10:37:36;;;;;;;6.57;1.75;;;;;;;;;;5025229;28;20729;-57
2021/06/23 10:40:07;;;;;;;3.05;1.73;;;;;;;;;;5016247;28;20622;-58
2021/06/23 10:42:33;;;;;;;2.38;1.90;;;;;;;;;;5024190;28;20081;-58
2021/06/23 10:45:00;;;;;;;4.95;2.15;;;;;;;;;;5022784;28;20049;-57
2021/06/23 10:47:34;;;;;;;7.57;2.25;;;;;;;;;;5013369;28;20038;-57
2021/06/23 10:50:02;;;;;;;5.43;1.90;;;;;;;;;;5017262;28;20042;-58
2021/06/23 10:52:30;;;;;;;2.10;1.90;;;;;;;;;;5018155;28;20049;-57
2021/06/23 10:54:57;;;;;;;4.00;1.90;;;;;;;;;;5019908;28;20100;-58
2021/06/23 10:57:26;;;;;;;2.08;1.83;;;;;;;;;;5017415;28;20048;-57
2021/06/23 10:59:56;;;;;;;1.85;1.75;;;;;;;;;;5022646;28;20053;-58
2021/06/23 11:02:27;;;;;;;7.13;2.10;;;;;;;;;;5018012;28;20567;-58
2021/06/23 11:04:57;;;;;;;1.92;1.80;;;;;;;;;;5016470;28;20045;-57
2021/06/23 11:07:36;;;;;;;2.72;1.67;;;;;;;;;;5015805;28;20053;-57
2021/06/23 11:10:15;;;;;;;2.65;1.70;;;;;;;;;;5017576;28;20037;-58
2021/06/23 11:12:46;;;;;;;2.42;1.40;;;;;;;;;;5014070;28;20084;-58
2021/06/23 11:15:18;;;;;;;2.05;1.75;;;;;;;;;;5019955;28;20558;-58
2021/06/23 11:17:46;;;;;;;6.97;2.00;;;;;;;;;;5020377;28;20045;-58
2021/06/23 11:20:19;;;;;;;2.10;1.80;;;;;;;;;;5021663;28;20057;-58
2021/06/23 11:22:47;;;;;;;1.92;1.65;;;;;;;;;;5016585;28;20069;-58
2021/06/23 11:25:21;;;;;;;2.78;2.00;;;;;;;;;;5016001;28;20052;-58
2021/06/23 11:28:03;;;;;;;3.78;1.73;;;;;;;;;;5023628;28;20053;-58
2021/06/23 11:30:31;;;;;;;2.20;2.00;;;;;;;;;;5014413;28;20045;-58
2021/06/23 11:32:57;;;;;;;1.97;1.80;;;;;;;;;;5018898;28;20226;-58
2021/06/23 11:35:25;;;;;;;2.22;2.03;;;;;;;;;;5022227;28;20509;-58
2021/06/23 11:37:53;;;;;;;2.30;2.10;;;;;;;;;;5020408;28;20045;-58
2021/06/23 11:40:23;;;;;;;3.15;2.03;;;;;;;;;;5023037;28;20080;-58
2021/06/23 11:42:51;;;;;;;1.88;1.77;;;;;;;;;;5021489;28;20034;-58
2021/06/23 11:45:26;;;;;;;2.55;2.17;;;;;;;;;;5011100;28;20573;-58
2021/06/23 11:47:53;;;;;;;1.67;1.58;;;;;;;;;;5020126;28;20052;-58
2021/06/23 11:50:21;;;;;;;8.43;2.50;;;;;;;;;;5017433;28;20064;-58
2021/06/23 11:52:48;;;;;;;8.52;1.83;;;;;;;;;;5016079;28;20046;-58
2021/06/23 11:55:23;;;;;;;1.90;1.80;;;;;;;;;;5013538;28;20038;-58
2021/06/23 11:57:52;;;;;;;2.78;1.90;;;;;;;;;;5017702;28;20049;-58
2021/06/23 12:00:18;;;;;;;;;;;;;;;;;;5015245;28;20077;-58
2021/06/23 12:02:45;;;;;;;2.97;2.30;;;;;;;;;;5013777;28;20335;-58
2021/06/23 12:05:12;;;;;;;2.35;2.15;;;;;;;;;;5018748;28;20124;-58
2021/06/23 12:07:38;;;;;;;2.30;2.10;;;;;;;;;;5018652;28;20054;-58
2021/06/23 12:10:05;;;;;;;2.45;2.05;;;;;;;;;;5014766;28;20040;-58
2021/06/23 12:12:39;;;;;;;4.32;1.98;;;;;;;;;;5016888;28;20448;-58
2021/06/23 12:15:09;;;;;;;5.00;2.10;;;;;;;;;;5014733;28;20048;-58
2021/06/23 12:17:37;;;;;;;2.22;1.83;;;;;;;;;;5014165;28;20050;-58
2021/06/23 12:20:06;;;;;;;2.58;2.20;;;;;;;;;;5012326;28;20092;-59
2021/06/23 12:22:33;;;;;;;;;;;;;;;;;;5018821;28;20037;-59
2021/06/23 12:25:01;;;;;;;2.25;2.00;;;;;;;;;;5023108;28;19971;-58
2021/06/23 12:27:27;;;;;;;4.40;2.10;;;;;;;;;;5020599;28;20058;-58
2021/06/23 12:29:56;;;;;;;1.90;1.80;;;;;;;;;;5017053;28;20037;-59
2021/06/23 12:32:23;;;;;;;3.20;2.13;;;;;;;;;;5017695;28;20038;-59
2021/06/23 12:34:51;;;;;;;2.25;2.05;;;;;;;;;;5018040;28;20038;-58
2021/06/23 12:37:18;;;;;;;3.90;2.30;;;;;;;;;;5018571;28;20045;-59
2021/06/23 12:39:45;;;;;;;11.38;2.80;;;;;;;;;;5015870;28;20413;-58
2021/06/23 12:42:11;;;;;;;8.35;3.75;;;;;;;;;;5024114;28;20030;-58
2021/06/23 12:44:39;;;;;;;11.83;3.57;;;;;;;;;;5013772;28;20076;-58
2021/06/23 12:47:06;;;;;;;;;;;;;;;;;;5016933;28;20034;-59
2021/06/23 12:49:33;;;;;;;6.65;2.67;;;;;;;;;;5013898;28;20403;-59
2021/06/23 12:52:00;;;;;;;8.52;2.70;;;;;;;;;;5017265;28;20046;-59
2021/06/23 12:54:27;;;;;;;4.22;2.50;;;;;;;;;;5018372;28;20164;-59
2021/06/23 12:56:53;;;;;;;4.37;2.53;;;;;;;;;;5014300;28;20049;-59
2021/06/23 12:59:20;;;;;;;2.55;2.33;;;;;;;;;;5016820;28;20053;-59
2021/06/23 13:01:47;;;;;;;3.17;2.50;;;;;;;;;;5010875;28;20060;-59
2021/06/23 13:04:15;;;;;;;4.45;2.60;;;;;;;;;;5018672;28;20046;-59
2021/06/23 13:06:41;;;;;;;3.33;2.40;;;;;;;;;;5015558;28;20049;-59
2021/06/23 13:09:08;;;;;;;2.58;2.38;;;;;;;;;;5017011;28;20045;-59
2021/06/23 13:11:34;;;;;;;3.35;2.42;;;;;;;;;;5016504;28;20628;-59
2021/06/23 13:14:01;;;;;;;5.57;2.72;;;;;;;;;;5016100;28;20061;-59
2021/06/23 13:16:30;;;;;;;4.63;2.40;;;;;;;;;;5017093;28;20064;-59
2021/06/23 13:18:57;;;;;;;4.53;2.45;;;;;;;;;;5023915;28;20571;-59
2021/06/23 13:21:24;;;;;;;2.70;2.50;;;;;;;;;;5024064;28;20034;-59
2021/06/23 13:23:51;;;;;;;2.80;2.60;;;;;;;;;;5024693;28;20115;-59
2021/06/23 13:26:18;;;;;;;2.60;2.40;;;;;;;;;;5019068;28;20121;-59
2021/06/23 13:28:45;;;;;;;2.43;2.23;;;;;;;;;;5021643;28;20091;-59
2021/06/23 13:31:11;;;;;;;3.85;2.50;;;;;;;;;;5023513;28;20276;-59
2021/06/23 13:33:38;;;;;;;3.50;2.70;;;;;;;;;;5019957;28;20045;-59
2021/06/23 13:36:05;;;;;;;2.75;2.30;;;;;;;;;;5017071;28;20043;-59
2021/06/23 13:38:32;;;;;;;2.30;2.10;;;;;;;;;;5019986;28;20118;-59
2021/06/23 13:40:59;;;;;;;8.23;2.47;;;;;;;;;;5021780;28;20037;-59
2021/06/23 13:43:26;;;;;;;10.05;2.40;;;;;;;;;;5020447;28;20049;-59
2021/06/23 13:45:53;;;;;;;;;;;;;;;;;;5017730;28;20509;-59
2021/06/23 13:48:20;;;;;;;2.85;2.40;;;;;;;;;;5020216;28;19925;-59
2021/06/23 13:50:47;;;;;;;4.50;2.90;;;;;;;;;;5015951;28;20124;-59
2021/06/23 13:53:14;;;;;;;2.63;2.42;;;;;;;;;;5022408;28;20041;-59
2021/06/23 13:55:41;;;;;;;4.03;2.65;;;;;;;;;;5025107;28;20042;-59
2021/06/23 13:58:08;;;;;;;;;;;;;;;;;;5025178;28;20108;-60
2021/06/23 14:00:36;;;;;;;5.55;2.47;;;;;;;;;;5014074;28;20106;-60
2021/06/23 14:03:04;;;;;;;3.20;2.47;;;;;;;;;;5019139;28;20393;-59
2021/06/23 14:05:31;;;;;;;3.47;2.42;;;;;;;;;;5015821;28;20450;-59
2021/06/23 14:07:59;;;;;;;2.92;2.70;;;;;;;;;;5015508;28;20182;-59
2021/06/23 14:10:26;;;;;;;2.92;2.60;;;;;;;;;;5020451;28;20112;-59
2021/06/23 14:12:53;;;;;;;5.45;2.70;;;;;;;;;;5017658;28;20052;-59
2021/06/23 14:15:20;;;;;;;4.10;2.67;;;;;;;;;;5015407;28;20042;-59
2021/06/23 14:17:50;;;;;;;4.47;2.55;;;;;;;;;;5020583;28;20065;-59
2021/06/23 14:20:17;;;;;;;4.93;2.70;;;;;;;;;;5015736;28;20132;-59
2021/06/23 14:22:44;;;;;;;2.70;2.50;;;;;;;;;;5025772;28;20041;-59
2021/06/23 14:25:11;;;;;;;3.67;2.35;;;;;;;;;;5023012;28;20038;-60
2021/06/23 14:27:38;;;;;;;2.80;2.60;;;;;;;;;;5012311;28;20405;-59
2021/06/23 14:30:06;;;;;;;5.22;2.47;;;;;;;;;;5019011;28;20071;-59
2021/06/23 14:32:43;;;;;;;4.13;2.42;;;;;;;;;;5017530;28;20713;-60
2021/06/23 14:35:10;;;;;;;2.95;2.47;;;;;;;;;;5022101;28;20042;-61
2021/06/23 14:37:37;;;;;;;2.45;2.25;;;;;;;;;;5020980;28;20052;-59
2021/06/23 14:40:04;;;;;;;9.83;2.70;;;;;;;;;;5020606;28;20044;-59
2021/06/23 14:42:32;;;;;;;2.20;2.00;;;;;;;;;;5014640;28;20052;-60
2021/06/23 14:44:58;;;;;;;4.90;2.50;;;;;;;;;;5016863;28;20053;-59
2021/06/23 14:47:27;;;;;;;4.35;2.30;;;;;;;;;;5013502;28;20303;-59
2021/06/23 14:49:54;;;;;;;4.87;2.40;;;;;;;;;;5015898;28;20042;-59
2021/06/23 14:52:20;;;;;;;10.27;2.40;;;;;;;;;;5016223;28;20148;-59
2021/06/23 14:54:47;;;;;;;4.97;2.30;;;;;;;;;;5015964;28;20145;-59
2021/06/23 14:57:14;;;;;;;7.95;2.60;;;;;;;;;;5018296;28;20099;-59
2021/06/23 14:59:40;;;;;;;2.35;2.15;;;;;;;;;;5012893;28;20042;-59
2021/06/23 15:02:07;;;;;;;4.03;2.40;;;;;;;;;;5016777;28;20049;-59
2021/06/23 15:04:54;;;;;;;2.75;2.08;;;;;;;;;;5020458;28;20040;-59
2021/06/23 15:07:21;;;;;;;;;;;;;;;;;;5016434;28;20472;-59
2021/06/23 15:09:48;;;;;;;2.55;2.00;;;;;;;;;;5017858;28;20012;-59
2021/06/23 15:12:14;;;;;;;11.63;2.42;;;;;;;;;;5017597;28;20038;-59
2021/06/23 15:14:44;;;;;;;4.45;2.30;;;;;;;;;;5016539;28;20544;-59
2021/06/23 15:17:11;;;;;;;2.90;2.30;;;;;;;;;;5022067;28;20045;-59
2021/06/23 15:19:39;;;;;;;3.55;2.30;;;;;;;;;;5020022;28;20252;-59
2021/06/23 15:22:05;;;;;;;4.85;2.13;;;;;;;;;;5017018;28;20041;-59
2021/06/23 15:24:33;;;;;;;5.28;2.85;;;;;;;;;;5021907;28;20129;-59
2021/06/23 15:27:00;;;;;;;2.72;2.17;;;;;;;;;;5017541;28;20515;-60
2021/06/23 15:29:26;;;;;;;8.95;2.30;;;;;;;;;;5020276;28;20489;-59
2021/06/23 15:31:53;;;;;;;2.17;1.88;;;;;;;;;;5014440;28;20046;-59
2021/06/23 15:34:20;;;;;;;9.47;2.37;;;;;;;;;;5015683;28;20124;-59
2021/06/23 15:36:46;;;;;;;4.68;2.20;;;;;;;;;;5014905;28;20288;-60
2021/06/23 15:39:13;;;;;;;2.10;1.90;;;;;;;;;;5014534;28;20041;-59
2021/06/23 15:41:39;;;;;;;4.72;2.13;;;;;;;;;;5019086;28;20757;-59
2021/06/23 15:44:06;;;;;;;6.25;2.28;;;;;;;;;;5017163;28;20041;-59
2021/06/23 15:46:33;;;;;;;5.03;1.80;;;;;;;;;;5012087;28;20176;-59
2021/06/23 15:49:01;;;;;;;5.97;2.70;;;;;;;;;;5018107;28;20037;-59
2021/06/23 15:51:27;;;;;;;7.05;3.00;;;;;;;;;;5016877;28;20385;-59
2021/06/23 15:53:55;;;;;;;;;;;;;;;;;;5016172;28;20466;-59
2021/06/23 15:56:21;;;;;;;7.57;1.80;;;;;;;;;;5015713;28;19929;-59
2021/06/23 15:58:48;;;;;;;2.70;1.90;;;;;;;;;;5022925;28;20559;-59
2021/06/23 16:01:14;;;;;;;1.60;1.50;;;;;;;;;;5014372;28;20038;-59
2021/06/23 16:03:41;;;;;;;5.63;1.90;;;;;;;;;;5017260;28;20079;-59
2021/06/23 16:06:08;;;;;;;4.60;1.77;;;;;;;;;;5013505;28;20061;-59
2021/06/23 16:08:35;;;;;;;1.80;1.70;;;;;;;;;;5012063;28;20046;-59
2021/06/23 16:11:02;;;;;;;;;;;;;;;;;;5018695;28;20497;-59
2021/06/23 16:13:30;;;;;;;1.88;1.75;;;;;;;;;;5019840;28;20385;-59
2021/06/23 16:15:57;;;;;;;10.93;1.75;;;;;;;;;;5017772;28;20033;-59
2021/06/23 16:18:23;;;;;;;6.53;1.60;;;;;;;;;;5021257;28;20132;-59
2021/06/23 16:20:54;;;;;;;3.22;1.77;;;;;;;;;;5016929;28;20045;-59
2021/06/23 16:23:22;;;;;;;1.80;1.70;;;;;;;;;;5019989;28;20091;-59
2021/06/23 16:25:48;;;;;;;;;;;;;;;;;;5014421;28;20539;-59
2021/06/23 16:28:15;;;;;;;3.72;1.77;;;;;;;;;;5021728;28;19926;-59
2021/06/23 16:30:42;;;;;;;4.88;1.50;;;;;;;;;;5016844;28;20825;-59
2021/06/23 16:33:09;;;;;;;4.50;1.48;;;;;;;;;;5017177;28;20041;-59
2021/06/23 16:35:35;;;;;;;2.95;1.38;;;;;;;;;;5019483;28;20049;-59
2021/06/23 16:38:03;;;;;;;2.63;1.40;;;;;;;;;;5015295;28;20095;-59
2021/06/23 16:40:30;;;;;;;2.10;1.50;;;;;;;;;;5014986;28;20046;-59
2021/06/23 16:42:56;;;;;;;3.13;1.50;;;;;;;;;;5022056;28;20076;-59
2021/06/23 16:45:23;;;;;;;1.67;1.30;;;;;;;;;;5018427;28;20064;-59
2021/06/23 16:47:51;;;;;;;1.50;1.40;;;;;;;;;;5018728;28;20120;-59
2021/06/23 16:50:20;;;;;;;2.30;1.40;;;;;;;;;;5019994;28;20033;-59
2021/06/23 16:52:47;;;;;;;1.63;1.52;;;;;;;;;;5019783;28;20545;-59
2021/06/23 16:55:14;;;;;;;3.83;1.50;;;;;;;;;;5021037;28;20064;-59
2021/06/23 16:57:41;;;;;;;1.70;1.60;;;;;;;;;;5018469;28;20038;-59
2021/06/23 17:00:09;;;;;;;2.03;1.45;;;;;;;;;;5014516;28;20584;-59
2021/06/23 17:02:36;;;;;;;3.63;1.33;;;;;;;;;;5018091;28;20143;-59
2021/06/23 17:05:10;;;;;;;1.60;1.50;;;;;;;;;;5021361;28;20068;-59
2021/06/23 17:07:37;;;;;;;1.42;1.33;;;;;;;;;;5020341;28;20033;-61
2021/06/23 17:10:04;;;;;;;2.58;1.50;;;;;;;;;;5018695;28;20069;-61
2021/06/23 17:12:30;;;;;;;2.37;1.40;;;;;;;;;;5021307;28;20033;-61
2021/06/23 17:14:59;;;;;;;1.48;1.38;;;;;;;;;;5017923;28;20136;-61
2021/06/23 17:17:25;;;;;;;1.30;1.20;;;;;;;;;;5018198;28;20060;-61
2021/06/23 17:19:52;;;;;;;2.60;1.73;;;;;;;;;;5022630;28;20037;-61
2021/06/23 17:22:19;;;;;;;4.03;2.28;;;;;;;;;;5018056;28;20046;-61
2021/06/23 17:24:46;;;;;;;3.20;1.60;;;;;;;;;;5017417;28;20049;-61
2021/06/23 17:27:12;;;;;;;1.38;1.27;;;;;;;;;;5015592;28;20061;-61
2021/06/23 17:29:39;;;;;;;2.77;1.57;;;;;;;;;;5023200;28;20087;-61
2021/06/23 17:32:09;;;;;;;1.38;1.27;;;;;;;;;;5017867;28;20308;-61
2021/06/23 17:34:37;;;;;;;2.17;1.33;;;;;;;;;;5015546;28;20057;-61
2021/06/23 17:37:04;;;;;;;2.72;1.40;;;;;;;;;;5015553;28;20050;-61
2021/06/23 17:39:31;;;;;;;6.38;1.58;;;;;;;;;;5013738;28;20053;-61
2021/06/23 17:41:57;;;;;;;4.03;1.80;;;;;;;;;;5019598;28;20038;-61
2021/06/23 17:44:27;;;;;;;3.08;1.40;;;;;;;;;;5018453;28;20286;-61
2021/06/23 17:46:53;;;;;;;2.10;1.30;;;;;;;;;;5020880;28;20064;-61
2021/06/23 17:49:20;;;;;;;2.05;1.25;;;;;;;;;;5016350;28;20073;-61
2021/06/23 17:51:46;;;;;;;1.35;1.25;;;;;;;;;;5021386;28;20045;-61
2021/06/23 17:54:13;;;;;;;2.03;1.38;;;;;;;;;;5019658;28;20088;-61
2021/06/23 17:56:41;;;;;;;2.10;1.90;;;;;;;;;;5017835;28;20591;-61
2021/06/23 17:59:09;;;;;;;1.98;1.40;;;;;;;;;;5014418;28;20163;-61
2021/06/23 18:01:36;;;;;;;2.77;1.47;;;;;;;;;;5024772;28;20041;-61
2021/06/23 18:04:03;;;;;;;1.58;1.48;;;;;;;;;;5018545;28;20694;-61
2021/06/23 18:06:30;;;;;;;3.33;1.40;;;;;;;;;;5021364;28;20570;-61
2021/06/23 18:08:57;;;;;;;3.75;1.38;;;;;;;;;;5019651;28;20136;-61
2021/06/23 18:11:24;;;;;;;2.63;1.60;;;;;;;;;;5023393;28;20073;-61
2021/06/23 18:13:51;;;;;;;3.05;1.60;;;;;;;;;;5017489;28;20038;-61
2021/06/23 18:16:18;;;;;;;2.83;1.63;;;;;;;;;;5016750;28;20072;-61
2021/06/23 18:18:45;;;;;;;2.38;1.60;;;;;;;;;;5018110;28;20034;-61
2021/06/23 18:21:12;;;;;;;2.00;1.55;;;;;;;;;;5019416;28;20421;-61
2021/06/23 18:23:39;;;;;;;3.03;1.57;;;;;;;;;;5021202;28;20072;-61
2021/06/23 18:26:05;;;;;;;3.00;1.75;;;;;;;;;;5014096;28;20064;-61
2021/06/23 18:28:33;;;;;;;5.93;1.95;;;;;;;;;;5016190;28;20128;-61
2021/06/23 18:31:00;;;;;;;2.58;1.38;;;;;;;;;;5016946;28;20871;-61
2021/06/23 18:33:27;;;;;;;3.90;1.83;;;;;;;;;;5019213;28;20037;-61
2021/06/23 18:35:54;;;;;;;11.95;2.20;;;;;;;;;;5016641;28;20460;-61
2021/06/23 18:38:21;;;;;;;10.43;3.10;;;;;;;;;;5019485;28;20464;-59
2021/06/23 18:40:47;;;;;;;6.88;2.10;;;;;;;;;;5018044;28;20120;-59
2021/06/23 18:43:15;;;;;;;7.68;2.00;;;;;;;;;;5015579;28;20072;-59
2021/06/23 18:45:41;;;;;;;;;;;;;;;;;;5020039;28;20045;-59
2021/06/23 18:48:08;;;;;;;4.80;2.20;;;;;;;;;;5016667;28;19925;-60
2021/06/23 18:50:36;;;;;;;7.97;2.10;;;;;;;;;;5015354;28;20034;-60
2021/06/23 18:53:03;;;;;;;4.85;1.80;;;;;;;;;;5017650;28;20034;-60
2021/06/23 18:55:31;;;;;;;11.38;2.17;;;;;;;;;;5022770;28;20120;-60
2021/06/23 18:58:01;;;;;;;4.45;1.70;;;;;;;;;;5024134;28;20142;-60
2021/06/23 19:00:28;;;;;;;3.83;1.70;;;;;;;;;;5013554;28;20046;-60
2021/06/23 19:02:56;;;;;;;2.80;1.75;;;;;;;;;;5015737;28;20041;-60
2021/06/23 19:05:24;;;;;;;3.42;1.73;;;;;;;;;;5021656;28;20128;-60
2021/06/23 19:07:50;;;;;;;9.63;2.40;;;;;;;;;;5012144;28;20045;-60
2021/06/23 19:10:17;;;;;;;17.23;2.58;;;;;;;;;;5019824;28;20523;-60
2021/06/23 19:12:44;;;;;;;14.50;2.60;;;;;;;;;;5015506;28;20046;-60
2021/06/23 19:15:12;;;;;;;12.52;2.42;;;;;;;;;;5016286;28;20103;-60
2021/06/23 19:17:39;;;;;;;15.07;2.22;;;;;;;;;;5018037;28;20044;-60
2021/06/23 19:20:09;;;;;;;7.10;2.28;;;;;;;;;;5017663;28;20120;-60
2021/06/23 19:22:36;;;;;;;6.40;2.08;;;;;;;;;;5016663;28;20033;-61
2021/06/23 19:25:06;;;;;;;10.75;2.30;;;;;;;;;;5016176;28;20041;-60
2021/06/23 19:27:33;;;;;;;11.70;2.28;;;;;;;;;;5012028;28;20116;-60
2021/06/23 19:29:59;;;;;;;7.45;2.38;;;;;;;;;;5019058;28;20444;-60
2021/06/23 19:32:29;;;;;;;6.10;2.08;;;;;;;;;;5016737;28;20088;-60
2021/06/23 19:34:56;;;;;;;7.35;2.40;;;;;;;;;;5014712;28;20520;-60
2021/06/23 19:37:23;;;;;;;6.57;2.30;;;;;;;;;;5018601;28;20465;-60
2021/06/23 19:39:50;;;;;;;3.08;2.05;;;;;;;;;;5015457;28;20121;-60
2021/06/23 19:42:17;;;;;;;7.63;2.10;;;;;;;;;;5018637;28;20144;-60
2021/06/23 19:44:56;;;;;;;5.30;2.08;;;;;;;;;;5019181;28;20091;-60
2021/06/23 19:47:23;;;;;;;5.70;2.25;;;;;;;;;;5017733;28;20141;-60
2021/06/23 19:49:50;;;;;;;4.07;2.08;;;;;;;;;;5017938;28;20107;-60
2021/06/23 19:52:16;;;;;;;2.78;1.90;;;;;;;;;;5021162;28;20033;-60
2021/06/23 19:54:43;;;;;;;5.70;2.30;;;;;;;;;;5017135;28;20080;-60
2021/06/23 19:57:11;;;;;;;3.72;2.00;;;;;;;;;;5011714;28;20602;-60
2021/06/23 19:59:39;;;;;;;7.53;2.85;;;;;;;;;;5016667;28;20054;-60
2021/06/23 20:02:06;;;;;;;7.43;2.10;;;;;;;;;;5015799;28;20037;-60
2021/06/23 20:04:33;;;;;;;4.45;2.22;;;;;;;;;;5018457;28;20111;-60
2021/06/23 20:07:01;;;;;;;5.00;2.03;;;;;;;;;;5016462;28;20046;-60
2021/06/23 20:09:33;;;;;;;10.25;2.45;;;;;;;;;;5018424;28;20048;-60
2021/06/23 20:11:59;;;;;;;5.20;2.13;;;;;;;;;;5011412;28;20493;-59
2021/06/23 20:14:26;;;;;;;4.93;2.20;;;;;;;;;;5017096;28;20404;-59
2021/06/23 20:16:53;;;;;;;2.83;2.10;;;;;;;;;;5017062;28;20038;-59
2021/06/23 20:19:20;;;;;;;2.63;1.98;;;;;;;;;;5011901;28;20115;-59
2021/06/23 20:21:46;;;;;;;3.50;2.00;;;;;;;;;;5017246;28;20048;-59
2021/06/23 20:24:14;;;;;;;;;;;;;;;;;;5017232;28;20085;-59
2021/06/23 20:26:41;;;;;;;3.25;2.20;;;;;;;;;;5018140;28;19921;-60
2021/06/23 20:29:08;;;;;;;6.82;2.35;;;;;;;;;;5018933;28;20061;-59
2021/06/23 20:31:36;;;;;;;5.30;2.50;;;;;;;;;;5009435;28;20425;-60
2021/06/23 20:34:03;;;;;;;5.00;2.45;;;;;;;;;;5012363;28;20045;-60
2021/06/23 20:36:30;;;;;;;2.88;2.00;;;;;;;;;;5015142;28;20064;-60
2021/06/23 20:38:57;;;;;;;3.25;2.17;;;;;;;;;;5012793;28;20549;-59
2021/06/23 20:41:24;;;;;;;3.67;2.30;;;;;;;;;;5016201;28;20148;-60
2021/06/23 20:43:51;;;;;;;5.60;2.13;;;;;;;;;;5014931;28;20045;-60
2021/06/23 20:46:17;;;;;;;8.87;2.83;;;;;;;;;;5015048;28;20117;-59
2021/06/23 20:48:44;;;;;;;5.30;2.00;;;;;;;;;;5013517;28;20125;-60
2021/06/23 20:51:10;;;;;;;3.85;2.30;;;;;;;;;;5016131;28;20038;-59
2021/06/23 20:53:38;;;;;;;7.03;2.10;;;;;;;;;;5016541;28;20041;-59
2021/06/23 20:56:05;;;;;;;4.13;2.70;;;;;;;;;;5020424;28;20546;-60
2021/06/23 20:58:31;;;;;;;4.70;2.92;;;;;;;;;;5015634;28;20095;-60
2021/06/23 21:00:58;;;;;;;5.45;2.33;;;;;;;;;;5013169;28;20037;-59
2021/06/23 21:03:24;;;;;;;2.97;2.17;;;;;;;;;;5016824;28;20586;-59
2021/06/23 21:05:58;;;;;;;3.60;2.30;;;;;;;;;;5016739;28;20288;-59
2021/06/23 21:08:39;;;;;;;3.83;2.38;;;;;;;;;;5017685;28;20449;-59
2021/06/23 21:11:05;;;;;;;2.63;2.28;;;;;;;;;;5014529;28;20445;-59